createdAt,value
2022-11-15T00:00:12.341Z,3.90
2022-11-15T00:02:41.412Z,2.83
2022-11-15T00:05:11.439Z,2.25
2022-11-15T00:07:55.186Z,2.35
2022-11-15T00:10:24.886Z,2.63
2022-11-15T00:12:54.348Z,2.35
2022-11-15T00:15:23.362Z,2.35
2022-11-15T00:17:52.729Z,2.88
2022-11-15T00:20:23.242Z,2.38
2022-11-15T00:22:52.110Z,2.47
2022-11-15T00:25:21.135Z,2.22
2022-11-15T00:27:49.867Z,1.92
2022-11-15T00:30:18.851Z,2.08
2022-11-15T00:32:47.745Z,2.33
2022-11-15T00:35:30.010Z,2.03
2022-11-15T00:38:00.585Z,2.50
2022-11-15T00:40:29.537Z,2.30
2022-11-15T00:42:58.525Z,2.38
2022-11-15T00:45:28.219Z,2.00
2022-11-15T00:47:57.253Z,2.03
2022-11-15T00:50:26.176Z,2.28
2022-11-15T00:52:55.252Z,2.58
2022-11-15T00:55:25.762Z,2.15
2022-11-15T00:57:54.795Z,2.08
2022-11-15T01:00:23.645Z,2.13
2022-11-15T01:02:52.990Z,2.15
2022-11-15T01:05:24.491Z,2.03
2022-11-15T01:07:57.219Z,2.47
2022-11-15T01:12:56.062Z,2.00
2022-11-15T01:15:25.049Z,2.08
2022-11-15T01:17:53.813Z,2.05
2022-11-15T01:20:22.874Z,2.05
2022-11-15T01:22:51.925Z,2.00
2022-11-15T01:25:26.294Z,1.65
2022-11-15T01:27:56.338Z,2.20
2022-11-15T01:30:25.236Z,2.20
2022-11-15T01:32:53.866Z,1.80
2022-11-15T01:35:22.833Z,2.33
2022-11-15T01:37:51.616Z,2.00
2022-11-15T01:40:20.714Z,1.95
2022-11-15T01:42:49.578Z,1.83
2022-11-15T01:45:20.088Z,1.83
2022-11-15T01:47:55.000Z,2.13
2022-11-15T01:50:28.325Z,1.75
2022-11-15T01:52:57.599Z,1.92
2022-11-15T01:55:30.607Z,2.17
2022-11-15T01:58:03.620Z,2.30
2022-11-15T02:00:34.557Z,2.17
2022-11-15T02:03:04.788Z,2.67
2022-11-15T02:05:34.135Z,1.90
2022-11-15T02:08:04.171Z,1.85
2022-11-15T02:10:33.156Z,2.17
2022-11-15T02:13:03.732Z,2.00
2022-11-15T02:15:42.901Z,2.20
2022-11-15T02:18:20.387Z,1.90
2022-11-15T02:21:05.780Z,2.00
2022-11-15T02:23:59.724Z,1.52
2022-11-15T02:27:00.632Z,1.90
2022-11-15T02:29:44.914Z,2.13
2022-11-15T02:32:21.471Z,2.20
2022-11-15T02:34:58.016Z,1.67
2022-11-15T02:37:35.082Z,2.00
2022-11-15T02:40:12.067Z,2.15
2022-11-15T02:43:08.301Z,2.70
2022-11-15T02:45:42.694Z,2.15
2022-11-15T02:48:14.877Z,2.40
2022-11-15T02:50:45.387Z,1.73
2022-11-15T02:53:14.691Z,2.10
2022-11-15T02:55:49.867Z,2.50
2022-11-15T02:58:35.781Z,2.15
2022-11-15T03:01:12.395Z,2.53
2022-11-15T03:03:56.356Z,2.50
2022-11-15T03:06:35.739Z,2.88
2022-11-15T03:09:10.883Z,2.58
2022-11-15T03:11:45.135Z,2.90
2022-11-15T03:14:24.078Z,3.13
2022-11-15T03:17:01.123Z,3.53
2022-11-15T03:19:37.221Z,3.70
2022-11-15T03:22:10.324Z,3.78
2022-11-15T03:24:40.300Z,3.65
2022-11-15T03:27:09.878Z,4.72
2022-11-15T03:29:40.900Z,4.80
2022-11-15T03:32:13.311Z,4.97
2022-11-15T03:34:46.836Z,5.18
2022-11-15T03:37:16.704Z,4.93
2022-11-15T03:39:44.940Z,4.95
2022-11-15T03:42:23.477Z,5.10
2022-11-15T03:44:57.889Z,5.70
2022-11-15T03:47:29.428Z,5.70
2022-11-15T03:50:04.211Z,5.30
2022-11-15T03:52:36.023Z,6.88
2022-11-15T03:55:06.041Z,6.43
2022-11-15T03:57:33.657Z,6.38
2022-11-15T04:00:01.244Z,6.68
2022-11-15T04:02:29.145Z,6.15
2022-11-15T04:04:56.682Z,6.70
2022-11-15T04:07:25.652Z,6.13
2022-11-15T04:10:06.229Z,6.25
2022-11-15T04:12:35.180Z,6.45
2022-11-15T04:15:10.978Z,7.32
2022-11-15T04:17:41.524Z,6.75
2022-11-15T04:20:29.543Z,7.60
2022-11-15T04:23:17.649Z,10.43
2022-11-15T04:25:46.319Z,10.23
2022-11-15T04:28:13.859Z,7.45
2022-11-15T04:30:41.461Z,7.05
2022-11-15T04:33:09.003Z,7.03
2022-11-15T04:35:36.796Z,7.40
2022-11-15T04:38:07.274Z,6.85
2022-11-15T04:40:35.126Z,7.47
2022-11-15T04:43:04.177Z,7.38
2022-11-15T04:45:32.442Z,7.38
2022-11-15T04:47:59.992Z,8.15
2022-11-15T04:50:27.553Z,7.40
2022-11-15T04:52:56.168Z,7.22
2022-11-15T04:55:24.981Z,8.68
2022-11-15T04:58:00.940Z,7.95
2022-11-15T05:00:29.912Z,7.47
2022-11-15T05:03:15.128Z,6.88
2022-11-15T05:05:42.670Z,8.80
2022-11-15T05:08:10.455Z,9.18
2022-11-15T05:10:39.321Z,8.88
2022-11-15T05:13:06.830Z,8.68
2022-11-15T05:15:34.332Z,7.95
2022-11-15T05:18:02.092Z,7.72
2022-11-15T05:20:29.595Z,8.35
2022-11-15T05:22:57.318Z,7.85
2022-11-15T05:25:25.047Z,7.97
2022-11-15T05:27:54.130Z,7.88
2022-11-15T05:30:22.015Z,7.63
2022-11-15T05:32:49.722Z,8.68
2022-11-15T05:35:23.541Z,7.70
2022-11-15T05:37:51.275Z,8.20
2022-11-15T05:40:19.080Z,8.02
2022-11-15T05:42:47.646Z,8.32
2022-11-15T05:45:18.496Z,7.55
2022-11-15T05:47:49.446Z,8.60
2022-11-15T05:50:20.386Z,8.13
2022-11-15T05:52:49.228Z,7.57
2022-11-15T05:55:17.243Z,7.60
2022-11-15T05:57:44.869Z,7.00
2022-11-15T06:00:13.616Z,7.18
2022-11-15T06:02:42.466Z,6.88
2022-11-15T06:05:10.049Z,6.93
2022-11-15T06:07:37.587Z,7.07
2022-11-15T06:10:05.700Z,7.40
2022-11-15T06:12:33.179Z,8.73
2022-11-15T06:15:00.686Z,7.40
2022-11-15T06:17:29.225Z,7.68
2022-11-15T06:19:58.062Z,7.72
2022-11-15T06:22:25.593Z,6.63
2022-11-15T06:24:54.915Z,7.15
2022-11-15T06:27:24.765Z,6.95
2022-11-15T06:39:25.467Z,6.75
2022-11-15T06:44:34.868Z,6.82
2022-11-15T06:47:02.513Z,6.85
2022-11-15T06:49:30.188Z,6.82
2022-11-15T07:08:19.491Z,5.78
2022-11-15T07:10:47.597Z,6.40
2022-11-15T07:13:18.260Z,5.60
2022-11-15T07:15:46.947Z,5.00
2022-11-15T07:18:19.578Z,5.60
2022-11-15T07:20:48.113Z,5.80
2022-11-15T07:23:17.784Z,5.75
2022-11-15T07:25:46.215Z,6.63
2022-11-15T07:28:16.262Z,5.32
2022-11-15T08:42:25.278Z,4.70
2022-11-15T08:50:35.122Z,4.85
2022-11-15T08:59:22.076Z,4.70
2022-11-15T09:01:51.241Z,4.22
2022-11-15T09:04:22.434Z,3.55
2022-11-15T09:06:55.040Z,3.83
2022-11-15T09:15:14.840Z,3.65
2022-11-15T09:17:43.985Z,3.42
2022-11-15T09:20:20.029Z,4.30
2022-11-15T09:26:04.967Z,3.75
2022-11-15T10:29:55.565Z,2.42
2022-11-15T10:36:32.546Z,2.20
2022-11-15T10:53:31.600Z,2.55
2022-11-15T10:56:27.595Z,1.90
2022-11-15T10:59:01.630Z,3.30
2022-11-15T11:05:12.104Z,2.72
2022-11-15T12:04:04.449Z,1.58
2022-11-15T12:07:29.040Z,1.92
2022-11-15T12:10:58.906Z,2.03
2022-11-15T12:20:42.240Z,1.67
2022-11-15T12:24:08.605Z,1.35
2022-11-15T12:26:56.317Z,1.60
2022-11-15T12:33:19.154Z,1.60
2022-11-15T12:36:29.605Z,2.35
2022-11-15T12:42:44.596Z,1.52
2022-11-15T12:45:43.954Z,1.50
2022-11-15T12:49:04.545Z,1.27
2022-11-15T12:52:16.671Z,1.50
2022-11-15T14:02:44.964Z,1.75
2022-11-15T14:28:09.672Z,2.67
2022-11-15T14:30:59.372Z,5.32
2022-11-15T14:38:16.411Z,7.72
2022-11-15T14:42:04.830Z,5.78
2022-11-15T14:53:23.258Z,4.82
2022-11-15T15:06:17.485Z,7.18
2022-11-15T15:25:25.469Z,2.67
2022-11-15T15:27:53.065Z,2.47
2022-11-15T15:30:20.916Z,2.28
2022-11-15T15:32:48.425Z,2.60
2022-11-15T15:35:16.994Z,2.33
2022-11-15T15:37:45.802Z,2.17
2022-11-15T15:40:17.861Z,3.33
2022-11-15T15:42:45.707Z,3.72
2022-11-15T15:45:13.580Z,3.78
2022-11-15T15:47:41.430Z,3.55
2022-11-15T15:50:24.174Z,3.58
2022-11-15T15:52:52.527Z,3.50
2022-11-15T15:55:22.294Z,3.85
2022-11-15T15:57:50.434Z,3.28
2022-11-15T16:00:19.672Z,3.55
2022-11-15T16:02:47.772Z,4.43
2022-11-15T16:05:15.341Z,4.60
2022-11-15T16:07:44.168Z,4.70
2022-11-15T16:10:21.204Z,5.75
2022-11-15T16:12:50.217Z,5.28
2022-11-15T16:15:18.557Z,5.90
2022-11-15T16:17:49.531Z,6.82
2022-11-15T16:20:33.646Z,6.80
2022-11-15T16:23:07.353Z,7.68
2022-11-15T16:25:41.776Z,7.38
2022-11-15T16:28:18.553Z,6.72
2022-11-15T16:30:46.524Z,6.15
2022-11-15T16:33:14.259Z,6.13
2022-11-15T16:35:41.899Z,6.20
2022-11-15T16:38:16.226Z,6.82
2022-11-15T16:40:44.161Z,6.47
2022-11-15T16:43:11.793Z,6.88
2022-11-15T16:45:40.625Z,7.50
2022-11-15T16:48:08.300Z,8.32
2022-11-15T16:50:40.747Z,8.00
2022-11-15T16:53:08.754Z,6.40
2022-11-15T16:55:36.326Z,7.35
2022-11-15T16:58:03.853Z,8.18
2022-11-15T17:00:31.532Z,8.30
2022-11-15T17:03:00.460Z,8.27
2022-11-15T17:05:40.138Z,8.90
2022-11-15T17:14:10.568Z,7.60
2022-11-15T17:16:42.274Z,7.63
2022-11-15T17:19:18.323Z,8.10
2022-11-15T17:21:46.995Z,6.95
2022-11-15T17:24:14.567Z,8.23
2022-11-15T17:26:42.906Z,7.10
2022-11-15T17:29:10.683Z,8.25
2022-11-15T17:31:39.740Z,8.40
2022-11-15T17:34:08.902Z,8.25
2022-11-15T17:36:38.158Z,8.27
2022-11-15T17:39:08.982Z,8.13
2022-11-15T17:41:45.262Z,8.82
2022-11-15T17:44:27.338Z,8.18
2022-11-15T17:46:56.816Z,8.15
2022-11-15T17:49:25.827Z,7.38
2022-11-15T17:51:54.845Z,8.45
2022-11-15T17:54:22.416Z,8.38
2022-11-15T17:56:50.017Z,9.23
2022-11-15T17:59:21.316Z,8.32
2022-11-15T18:01:49.252Z,8.48
2022-11-15T18:04:16.836Z,8.07
2022-11-15T18:06:44.434Z,8.57
2022-11-15T18:09:13.537Z,8.55
2022-11-15T18:11:43.168Z,8.60
2022-11-15T18:14:14.938Z,8.38
2022-11-15T18:16:43.407Z,9.63
2022-11-15T18:19:13.573Z,8.35
2022-11-15T18:21:57.030Z,8.73
2022-11-15T18:24:28.153Z,8.20
2022-11-15T18:26:56.563Z,8.85
2022-11-15T18:29:25.497Z,8.52
2022-11-15T18:31:56.041Z,8.02
2022-11-15T18:34:24.537Z,7.78
2022-11-15T18:36:53.370Z,8.07
2022-11-15T18:39:21.278Z,9.85
2022-11-15T18:41:50.304Z,8.65
2022-11-15T18:44:18.718Z,9.02
2022-11-15T18:46:48.571Z,10.15
2022-11-15T18:49:19.592Z,8.13
2022-11-15T18:51:47.515Z,9.07
2022-11-15T18:54:18.076Z,8.73
2022-11-15T18:56:46.956Z,9.25
2022-11-15T18:59:16.622Z,8.52
2022-11-15T19:01:47.126Z,8.48
2022-11-15T19:04:17.444Z,9.05
2022-11-15T19:06:47.012Z,7.95
2022-11-15T19:09:16.393Z,8.20
2022-11-15T19:11:45.459Z,7.95
2022-11-15T19:14:14.797Z,7.93
2022-11-15T19:16:45.551Z,7.78
2022-11-15T19:19:15.626Z,14.73
2022-11-15T19:21:43.444Z,10.23
2022-11-15T19:24:11.428Z,8.98
2022-11-15T19:26:39.647Z,8.70
2022-11-15T19:29:10.177Z,7.93
2022-11-15T19:31:38.590Z,8.05
2022-11-15T19:34:08.030Z,8.63
2022-11-15T19:36:38.139Z,7.93
2022-11-15T19:39:09.580Z,8.82
2022-11-15T19:41:38.601Z,8.52
2022-11-15T19:44:06.454Z,9.32
2022-11-15T19:46:34.734Z,8.00
2022-11-15T19:49:02.755Z,7.80
2022-11-15T19:51:31.982Z,9.10
2022-11-15T19:54:06.134Z,7.53
2022-11-15T19:56:34.971Z,7.72
2022-11-15T19:59:03.245Z,8.10
2022-11-15T20:01:32.756Z,8.13
2022-11-15T20:04:01.353Z,8.45
2022-11-15T20:06:32.141Z,8.07
2022-11-15T20:09:00.002Z,8.02
2022-11-15T20:11:28.034Z,8.30
2022-11-15T20:13:58.335Z,7.63
2022-11-15T20:16:26.099Z,7.55
2022-11-15T20:18:53.980Z,9.02
2022-11-15T20:21:22.134Z,8.82
2022-11-15T20:23:51.635Z,8.98
2022-11-15T20:26:19.925Z,9.05
2022-11-15T20:28:48.165Z,8.23
2022-11-15T20:31:16.962Z,8.10
2022-11-15T20:33:45.008Z,7.90
2022-11-15T20:36:15.262Z,7.28
2022-11-15T20:38:43.367Z,8.02
2022-11-15T20:41:13.051Z,7.90
2022-11-15T20:43:43.250Z,7.65
2022-11-15T20:46:11.147Z,7.05
2022-11-15T20:48:38.710Z,7.25
2022-11-15T20:51:08.246Z,7.35
2022-11-15T20:53:36.240Z,7.15
2022-11-15T20:56:08.079Z,7.78
2022-11-15T21:03:56.782Z,8.10
